createdAt,value
2018-09-13T00:01:35.224Z,21.40
2018-09-13T00:04:03.966Z,21.50
2018-09-13T00:06:32.705Z,21.50
2018-09-13T00:09:01.344Z,21.50
2018-09-13T00:11:30.106Z,21.40
2018-09-13T00:13:59.294Z,21.20
2018-09-13T00:16:28.887Z,21.20
2018-09-13T00:18:57.665Z,21.20
2018-09-13T00:21:26.707Z,21.20
2018-09-13T00:23:55.349Z,21.20
2018-09-13T00:26:24.084Z,21.20
2018-09-13T00:28:52.781Z,21.20
2018-09-13T00:31:22.620Z,21.20
2018-09-13T00:33:51.540Z,21.20
2018-09-13T00:36:20.944Z,21.20
2018-09-13T00:38:49.665Z,21.20
2018-09-13T00:41:18.635Z,21.20
2018-09-13T00:43:47.561Z,21.20
2018-09-13T00:46:16.960Z,21.20
2018-09-13T00:48:46.050Z,21.30
2018-09-13T00:51:16.072Z,21.40
2018-09-13T00:53:44.820Z,21.50
2018-09-13T00:56:14.171Z,21.40
2018-09-13T00:58:42.818Z,21.50
2018-09-13T01:01:13.318Z,21.50
2018-09-13T01:03:42.550Z,21.40
2018-09-13T01:06:11.405Z,21.40
2018-09-13T01:08:40.177Z,21.50
2018-09-13T01:11:09.208Z,21.40
2018-09-13T01:13:38.483Z,21.40
2018-09-13T01:16:07.257Z,21.50
2018-09-13T01:18:36.941Z,21.50
2018-09-13T01:21:05.511Z,21.50
2018-09-13T01:23:34.142Z,21.50
2018-09-13T01:26:02.765Z,21.50
2018-09-13T01:28:31.612Z,21.50
2018-09-13T01:31:00.247Z,21.40
2018-09-13T01:33:28.860Z,21.40
2018-09-13T01:36:09.833Z,21.30
2018-09-13T01:38:38.492Z,21.30
2018-09-13T01:41:08.334Z,21.30
2018-09-13T01:43:37.331Z,21.30
2018-09-13T01:46:05.997Z,21.40
2018-09-13T01:48:35.279Z,21.40
2018-09-13T01:51:03.872Z,21.40
2018-09-13T01:53:32.442Z,21.40
2018-09-13T01:56:02.119Z,21.30
2018-09-13T01:58:30.633Z,21.20
2018-09-13T02:01:00.297Z,21.20
2018-09-13T02:03:28.909Z,21.30
2018-09-13T02:05:57.535Z,21.30
2018-09-13T02:08:26.783Z,21.40
2018-09-13T02:11:04.686Z,21.40
2018-09-13T02:13:33.249Z,21.40
2018-09-13T02:16:01.911Z,21.50
2018-09-13T02:18:33.137Z,21.30
2018-09-13T02:21:02.684Z,21.30
2018-09-13T02:23:31.559Z,21.30
2018-09-13T02:26:00.957Z,21.20
2018-09-13T02:28:29.643Z,21.10
2018-09-13T02:30:58.191Z,21.10
2018-09-13T02:33:26.837Z,21.20
2018-09-13T02:35:56.352Z,21.10
2018-09-13T02:38:24.930Z,21.10
2018-09-13T02:40:54.096Z,21.10
2018-09-13T02:43:23.127Z,21.20
2018-09-13T02:45:52.107Z,21.20
2018-09-13T02:48:21.227Z,21.10
2018-09-13T02:50:49.810Z,21.20
2018-09-13T02:53:18.544Z,21.20
2018-09-13T02:55:47.043Z,21.20
2018-09-13T02:58:15.561Z,21.30
2018-09-13T03:00:44.170Z,21.30
2018-09-13T03:03:12.641Z,21.30
2018-09-13T03:05:41.168Z,21.30
2018-09-13T03:08:09.656Z,21.30
2018-09-13T03:10:38.244Z,21.20
2018-09-13T03:13:06.762Z,21.30
2018-09-13T03:15:35.285Z,21.30
2018-09-13T03:18:03.829Z,21.30
2018-09-13T03:20:32.311Z,21.30
2018-09-13T03:23:00.869Z,21.30
2018-09-13T03:25:29.361Z,21.30
2018-09-13T03:27:57.929Z,21.30
2018-09-13T03:30:26.491Z,21.20
2018-09-13T03:32:55.008Z,21.20
2018-09-13T03:35:23.547Z,21.20
2018-09-13T03:37:52.045Z,21.20
2018-09-13T03:40:20.524Z,21.10
2018-09-13T03:42:49.026Z,21.00
2018-09-13T03:45:17.532Z,20.90
2018-09-13T03:47:46.057Z,20.90
2018-09-13T03:50:14.539Z,20.90
2018-09-13T03:52:43.036Z,21.00
2018-09-13T03:55:11.555Z,21.10
2018-09-13T03:57:40.062Z,21.10
2018-09-13T04:00:08.669Z,21.00
2018-09-13T04:02:37.195Z,21.00
2018-09-13T04:05:05.831Z,21.00
2018-09-13T04:07:34.349Z,21.10
2018-09-13T04:10:02.921Z,21.00
2018-09-13T04:12:31.516Z,21.10
2018-09-13T04:15:00.081Z,21.10
2018-09-13T04:17:28.724Z,21.10
2018-09-13T04:19:57.265Z,21.10
2018-09-13T04:22:25.861Z,21.10
2018-09-13T04:24:54.516Z,21.10
2018-09-13T04:27:23.146Z,21.00
2018-09-13T04:29:51.675Z,21.00
2018-09-13T04:32:20.183Z,21.00
2018-09-13T04:34:48.681Z,20.90
2018-09-13T04:37:17.201Z,20.90
2018-09-13T04:39:45.793Z,20.90
2018-09-13T04:42:14.289Z,20.90
2018-09-13T04:44:42.876Z,20.90
2018-09-13T04:47:11.388Z,20.80
2018-09-13T04:49:40.110Z,20.80
2018-09-13T04:52:08.715Z,20.70
2018-09-13T04:54:37.365Z,20.80
2018-09-13T04:57:05.874Z,20.80
2018-09-13T04:59:34.593Z,20.90
2018-09-13T05:02:03.271Z,20.80
2018-09-13T05:04:31.832Z,20.80
2018-09-13T05:07:00.670Z,20.80
2018-09-13T05:09:30.770Z,20.70
2018-09-13T05:11:59.420Z,20.80
2018-09-13T05:14:28.476Z,20.70
2018-09-13T05:16:57.036Z,20.70
2018-09-13T05:19:25.723Z,20.60
2018-09-13T05:21:55.189Z,20.60
2018-09-13T05:24:23.771Z,20.50
2018-09-13T05:26:52.252Z,20.50
2018-09-13T05:29:21.068Z,20.50
2018-09-13T05:31:49.979Z,20.50
2018-09-13T05:34:18.516Z,20.60
2018-09-13T05:36:47.122Z,20.60
2018-09-13T05:39:15.605Z,20.60
2018-09-13T05:41:44.321Z,20.60
2018-09-13T05:44:13.433Z,20.70
2018-09-13T05:46:41.943Z,20.70
2018-09-13T05:49:10.571Z,20.70
2018-09-13T05:51:39.338Z,20.70
2018-09-13T05:54:07.973Z,20.70
2018-09-13T05:56:36.451Z,20.60
2018-09-13T05:59:05.005Z,20.60
2018-09-13T06:01:35.525Z,20.70
2018-09-13T06:04:05.438Z,20.70
2018-09-13T06:06:35.181Z,20.70
2018-09-13T06:09:04.921Z,20.70
2018-09-13T06:11:33.526Z,20.60
2018-09-13T06:14:02.092Z,20.60
2018-09-13T06:16:31.259Z,20.50
2018-09-13T06:19:00.593Z,20.50
2018-09-13T06:21:29.700Z,20.50
2018-09-13T06:23:58.429Z,20.50
2018-09-13T06:26:26.953Z,20.50
2018-09-13T06:28:55.456Z,20.50
2018-09-13T06:31:24.020Z,20.50
2018-09-13T06:33:52.501Z,20.50
2018-09-13T06:36:22.278Z,20.50
2018-09-13T06:38:51.947Z,20.60
2018-09-13T06:41:20.622Z,20.70
2018-09-13T06:43:49.111Z,20.60
2018-09-13T06:46:18.631Z,20.60
2018-09-13T06:48:48.806Z,20.70
2018-09-13T06:51:20.429Z,20.90
2018-09-13T06:53:50.501Z,20.80
2018-09-13T06:56:20.542Z,20.80
2018-09-13T06:58:50.303Z,20.90
2018-09-13T07:01:21.498Z,21.00
2018-09-13T07:03:50.732Z,21.00
2018-09-13T07:06:20.094Z,21.00
2018-09-13T07:08:49.330Z,21.00
2018-09-13T07:11:18.449Z,21.10
2018-09-13T07:13:47.001Z,21.10
2018-09-13T07:16:16.181Z,21.10
2018-09-13T07:18:44.667Z,21.00
2018-09-13T07:21:13.110Z,21.00
2018-09-13T07:23:41.659Z,20.90
2018-09-13T07:26:10.200Z,21.00
2018-09-13T07:28:38.668Z,21.10
2018-09-13T07:31:07.219Z,21.10
2018-09-13T07:33:35.656Z,21.10
2018-09-13T07:36:04.151Z,21.10
2018-09-13T07:38:32.746Z,21.10
2018-09-13T07:41:01.283Z,21.10
2018-09-13T07:43:30.979Z,21.20
2018-09-13T07:45:59.644Z,21.30
2018-09-13T07:48:28.323Z,21.40
2018-09-13T07:50:56.907Z,21.40
2018-09-13T07:53:25.438Z,21.50
2018-09-13T07:55:54.024Z,21.40
2018-09-13T07:58:22.641Z,21.40
2018-09-13T08:00:51.585Z,21.30
2018-09-13T08:03:20.316Z,21.30
2018-09-13T08:05:48.785Z,21.40
2018-09-13T08:08:17.347Z,21.40
2018-09-13T08:10:45.838Z,21.40
2018-09-13T08:13:14.341Z,21.30
2018-09-13T08:15:42.875Z,21.30
2018-09-13T08:18:11.436Z,21.30
2018-09-13T08:20:41.015Z,21.30
2018-09-13T08:23:09.604Z,21.30
2018-09-13T08:25:38.106Z,21.30
2018-09-13T08:28:06.668Z,21.20
2018-09-13T08:30:35.215Z,21.20
2018-09-13T08:33:03.767Z,21.20
2018-09-13T08:35:32.420Z,21.30
2018-09-13T08:38:01.569Z,21.30
2018-09-13T08:40:30.144Z,21.30
2018-09-13T08:42:58.730Z,21.20
2018-09-13T08:45:27.251Z,21.20
2018-09-13T08:47:55.835Z,21.30
2018-09-13T08:50:24.326Z,21.20
2018-09-13T08:52:52.949Z,21.30
2018-09-13T08:55:21.535Z,21.30
2018-09-13T08:57:50.039Z,21.40
2018-09-13T09:00:18.603Z,21.30
2018-09-13T09:02:47.203Z,21.30
2018-09-13T09:05:15.858Z,21.30
2018-09-13T09:07:44.508Z,21.30
2018-09-13T09:10:13.082Z,21.30
2018-09-13T09:12:42.065Z,21.30
2018-09-13T09:15:10.820Z,21.40
2018-09-13T09:17:39.586Z,21.40
2018-09-13T09:20:08.830Z,21.40
2018-09-13T09:22:37.467Z,21.40
2018-09-13T09:25:06.102Z,21.40
2018-09-13T09:27:36.046Z,21.30
2018-09-13T09:30:05.843Z,21.30
2018-09-13T09:32:34.773Z,21.20
2018-09-13T09:35:05.454Z,21.30
2018-09-13T09:37:36.699Z,21.40
2018-09-13T09:40:05.425Z,21.40
2018-09-13T09:42:33.961Z,21.40
2018-09-13T09:45:02.497Z,21.50
2018-09-13T09:47:31.041Z,21.50
2018-09-13T09:49:59.880Z,21.60
2018-09-13T09:52:28.519Z,21.70
2018-09-13T09:54:58.468Z,21.60
2018-09-13T09:57:27.372Z,21.60
2018-09-13T09:59:56.507Z,21.50
2018-09-13T10:02:25.083Z,21.50
2018-09-13T10:04:53.677Z,21.50
2018-09-13T10:07:22.286Z,21.40
2018-09-13T10:09:50.896Z,21.50
2018-09-13T10:12:19.885Z,21.70
2018-09-13T10:16:55.687Z,21.70
2018-09-13T10:19:29.556Z,21.60
2018-09-13T10:22:03.330Z,21.80
2018-09-13T10:24:37.061Z,21.80
2018-09-13T10:27:10.819Z,21.70
2018-09-13T10:29:45.590Z,21.80
2018-09-13T10:32:19.277Z,21.80
2018-09-13T10:34:53.058Z,21.90
2018-09-13T10:37:28.113Z,21.90
2018-09-13T10:40:01.879Z,21.80
2018-09-13T10:42:35.596Z,21.70
2018-09-13T10:45:09.544Z,21.60
2018-09-13T10:47:43.408Z,21.50
2018-09-13T10:50:17.263Z,21.50
2018-09-13T10:52:50.048Z,21.50
2018-09-13T10:55:18.776Z,21.40
2018-09-13T10:57:47.324Z,21.40
2018-09-13T11:00:15.903Z,21.30
2018-09-13T11:02:44.484Z,21.20
2018-09-13T11:05:13.035Z,21.30
2018-09-13T11:07:41.611Z,21.40
2018-09-13T11:10:10.249Z,21.50
2018-09-13T11:12:44.319Z,21.50
2018-09-13T11:15:18.024Z,21.50
2018-09-13T11:17:46.531Z,21.60
2018-09-13T11:20:15.119Z,21.70
2018-09-13T11:22:43.736Z,21.70
2018-09-13T11:25:12.231Z,21.90
2018-09-13T11:27:40.917Z,22.10
2018-09-13T11:30:09.491Z,22.30
2018-09-13T11:32:38.130Z,22.50
2018-09-13T11:35:07.267Z,22.60
2018-09-13T11:37:35.773Z,22.80
2018-09-13T11:40:04.488Z,22.80
2018-09-13T11:42:33.065Z,22.80
2018-09-13T11:45:01.589Z,22.90
2018-09-13T11:47:30.236Z,22.90
2018-09-13T11:49:58.992Z,22.90
2018-09-13T11:52:27.491Z,22.90
2018-09-13T11:54:56.063Z,22.80
2018-09-13T11:57:24.668Z,22.80
2018-09-13T11:59:53.622Z,22.80
2018-09-13T12:02:22.245Z,22.90
2018-09-13T12:04:50.828Z,22.90
2018-09-13T12:07:19.405Z,22.80
2018-09-13T12:09:47.892Z,22.90
2018-09-13T12:12:16.496Z,23.00
2018-09-13T12:14:45.142Z,23.00
2018-09-13T12:17:13.728Z,22.90
2018-09-13T12:19:42.437Z,22.90
2018-09-13T12:22:11.020Z,22.90
2018-09-13T12:24:39.681Z,22.80
2018-09-13T12:27:08.832Z,22.80
2018-09-13T12:29:38.957Z,22.70
2018-09-13T12:32:09.018Z,22.70
2018-09-13T12:34:37.709Z,22.90
2018-09-13T12:37:06.345Z,23.00
2018-09-13T12:39:35.016Z,22.90
2018-09-13T12:42:03.638Z,22.90
2018-09-13T12:44:32.318Z,22.90
2018-09-13T12:47:01.141Z,23.00
2018-09-13T12:49:29.862Z,23.10
2018-09-13T12:51:58.460Z,23.20
2018-09-13T12:54:27.435Z,23.30
2018-09-13T12:56:56.910Z,23.40
2018-09-13T12:59:25.417Z,23.50
2018-09-13T13:01:54.179Z,23.50
2018-09-13T13:04:22.763Z,23.50
2018-09-13T13:06:51.950Z,23.50
2018-09-13T13:09:20.923Z,23.40
2018-09-13T13:11:50.891Z,23.30
2018-09-13T13:14:19.579Z,23.30
2018-09-13T13:16:48.284Z,23.40
2018-09-13T13:19:17.089Z,23.40
2018-09-13T13:21:45.918Z,23.30
2018-09-13T13:24:14.553Z,23.20
2018-09-13T13:26:43.233Z,23.20
2018-09-13T13:29:12.313Z,23.10
2018-09-13T13:31:41.013Z,23.20
2018-09-13T13:34:09.605Z,23.40
2018-09-13T13:36:38.147Z,23.70
2018-09-13T13:39:08.996Z,24.00
2018-09-13T13:41:37.572Z,24.30
2018-09-13T13:44:08.235Z,24.50
2018-09-13T13:46:36.724Z,24.50
2018-09-13T13:49:05.435Z,24.20
2018-09-13T13:51:35.310Z,24.10
2018-09-13T13:54:16.917Z,23.90
2018-09-13T13:56:56.823Z,23.90
2018-09-13T13:59:25.464Z,24.00
2018-09-13T14:01:55.446Z,24.10
2018-09-13T14:04:25.852Z,24.20
2018-09-13T14:06:54.874Z,24.30
2018-09-13T14:09:23.709Z,24.30
2018-09-13T14:11:52.371Z,24.20
2018-09-13T14:14:21.034Z,24.20
2018-09-13T14:16:49.715Z,24.10
2018-09-13T14:19:18.303Z,24.10
2018-09-13T14:21:46.931Z,24.10
2018-09-13T14:24:15.509Z,23.90
2018-09-13T14:26:44.088Z,23.70
2018-09-13T14:29:12.970Z,23.60
2018-09-13T14:31:41.761Z,23.50
2018-09-13T14:34:11.060Z,23.40
2018-09-13T14:36:39.815Z,23.50
2018-09-13T14:39:10.521Z,23.40
2018-09-13T14:41:39.308Z,23.40
2018-09-13T14:44:08.053Z,23.40
2018-09-13T14:46:37.236Z,23.30
2018-09-13T14:49:07.224Z,23.30
2018-09-13T14:51:35.967Z,23.40
2018-09-13T14:54:04.672Z,23.40
2018-09-13T14:56:34.468Z,23.40
2018-09-13T14:59:03.332Z,23.60
2018-09-13T15:01:32.067Z,23.60
2018-09-13T15:04:00.754Z,23.60
2018-09-13T15:06:29.533Z,23.60
2018-09-13T15:08:58.650Z,23.50
2018-09-13T15:11:27.309Z,23.50
2018-09-13T15:13:55.965Z,23.40
2018-09-13T15:16:25.061Z,23.40
2018-09-13T15:18:53.694Z,23.50
2018-09-13T15:21:23.255Z,23.70
2018-09-13T15:23:51.797Z,23.80
2018-09-13T15:26:21.778Z,24.00
2018-09-13T15:28:50.393Z,24.00
2018-09-13T15:31:19.028Z,24.00
2018-09-13T15:33:47.503Z,23.90
2018-09-13T15:36:16.083Z,23.90
2018-09-13T15:38:44.678Z,24.00
2018-09-13T15:41:13.564Z,24.10
2018-09-13T15:43:43.356Z,23.90
2018-09-13T15:46:12.068Z,23.80
2018-09-13T15:48:40.617Z,23.60
2018-09-13T15:51:09.334Z,23.60
2018-09-13T15:53:38.091Z,23.60
2018-09-13T15:56:06.647Z,23.50
2018-09-13T15:58:35.258Z,23.40
2018-09-13T16:01:04.087Z,23.40
2018-09-13T16:03:32.762Z,23.50
2018-09-13T16:06:01.320Z,23.50
2018-09-13T16:08:30.123Z,23.50
2018-09-13T16:10:58.599Z,23.50
2018-09-13T16:13:27.251Z,23.40
2018-09-13T16:15:56.089Z,23.30
2018-09-13T16:18:24.695Z,23.20
2018-09-13T16:20:53.274Z,23.20
2018-09-13T16:23:21.823Z,23.20
2018-09-13T16:25:50.404Z,23.20
2018-09-13T16:31:30.662Z,23.10
2018-09-13T16:33:59.193Z,23.10
2018-09-13T16:36:29.073Z,23.10
2018-09-13T16:39:02.867Z,23.20
2018-09-13T16:41:40.855Z,23.20
2018-09-13T16:44:14.544Z,23.00
2018-09-13T16:46:50.244Z,22.90
2018-09-13T16:49:20.451Z,22.90
2018-09-13T16:51:53.213Z,22.80
2018-09-13T16:54:23.458Z,22.90
2018-09-13T16:56:54.511Z,23.00
2018-09-13T16:59:27.941Z,22.90
2018-09-13T17:02:00.947Z,22.80
2018-09-13T17:04:29.603Z,22.80
2018-09-13T17:07:00.052Z,22.70
2018-09-13T17:09:32.084Z,22.70
2018-09-13T17:12:07.221Z,22.80
2018-09-13T17:14:37.939Z,22.80
2018-09-13T17:17:14.888Z,22.80
2018-09-13T17:19:43.509Z,22.80
2018-09-13T17:26:49.428Z,22.80
2018-09-13T17:29:17.956Z,22.80
2018-09-13T17:31:46.527Z,22.80
2018-09-13T17:34:15.245Z,22.80
2018-09-13T17:36:43.769Z,22.70
2018-09-13T17:39:13.320Z,22.70
2018-09-13T17:41:42.481Z,22.60
2018-09-13T17:44:11.104Z,22.70
2018-09-13T17:46:40.572Z,22.70
2018-09-13T17:49:09.128Z,22.80
2018-09-13T17:55:09.057Z,22.80
2018-09-13T17:57:40.732Z,22.70
2018-09-13T18:00:10.569Z,22.70
2018-09-13T18:02:42.972Z,22.70
2018-09-13T18:05:11.652Z,22.80
2018-09-13T18:07:40.189Z,22.80
2018-09-13T18:10:08.729Z,22.80
2018-09-13T18:12:37.347Z,22.70
2018-09-13T18:15:07.153Z,22.70
2018-09-13T18:17:36.152Z,22.80
2018-09-13T18:20:05.794Z,22.70
2018-09-13T18:25:25.746Z,22.60
2018-09-13T18:27:55.355Z,22.60
2018-09-13T18:30:25.654Z,22.60
2018-09-13T18:32:54.403Z,22.70
2018-09-13T18:35:23.312Z,22.70
2018-09-13T18:37:51.857Z,22.70
2018-09-13T18:42:05.782Z,22.70
2018-09-13T18:44:38.523Z,22.70
2018-09-13T18:47:07.254Z,22.80
2018-09-13T18:53:01.340Z,22.70
2018-09-13T18:55:31.909Z,22.70
2018-09-13T18:58:00.403Z,22.70
2018-09-13T19:00:28.997Z,22.70
2018-09-13T19:02:57.547Z,22.70
2018-09-13T19:05:26.157Z,22.70
2018-09-13T19:07:55.111Z,22.60
2018-09-13T19:10:25.366Z,22.60
2018-09-13T19:12:54.097Z,22.60
2018-09-13T19:15:22.700Z,22.60
2018-09-13T19:17:52.098Z,22.70
2018-09-13T19:20:21.108Z,22.60
2018-09-13T19:22:51.640Z,22.60
2018-09-13T19:25:27.604Z,22.60
2018-09-13T19:27:58.602Z,22.50
2018-09-13T19:30:28.825Z,22.50
2018-09-13T19:32:58.162Z,22.40
2018-09-13T19:35:29.099Z,22.30
2018-09-13T19:37:58.266Z,22.30
2018-09-13T19:40:28.967Z,22.20
2018-09-13T19:42:57.566Z,22.20
2018-09-13T19:45:26.541Z,22.20
2018-09-13T19:47:56.219Z,22.10
2018-09-13T19:53:17.817Z,22.00
2018-09-13T19:55:47.012Z,22.00
2018-09-13T19:58:17.570Z,22.00
2018-09-13T20:00:46.701Z,21.90
2018-09-13T20:03:15.723Z,21.90
2018-09-13T20:05:45.624Z,21.90
2018-09-13T20:08:15.842Z,21.80
2018-09-13T20:10:46.597Z,21.80
2018-09-13T20:13:20.349Z,21.80
2018-09-13T20:15:50.112Z,21.80
2018-09-13T20:18:21.816Z,21.80
2018-09-13T20:20:55.423Z,21.70
2018-09-13T20:23:25.908Z,21.70
2018-09-13T20:25:54.510Z,21.70
2018-09-13T20:28:23.003Z,21.60
2018-09-13T20:30:51.528Z,21.60
2018-09-13T20:33:20.128Z,21.60
2018-09-13T20:35:52.643Z,21.60
2018-09-13T20:38:21.287Z,21.60
2018-09-13T20:41:06.489Z,21.60
2018-09-13T20:43:35.410Z,21.60
2018-09-13T20:46:03.990Z,21.50
2018-09-13T20:48:33.607Z,21.50
2018-09-13T20:51:02.129Z,21.50
2018-09-13T20:53:32.293Z,21.50
2018-09-13T20:56:00.843Z,21.40
2018-09-13T20:58:31.402Z,21.40
2018-09-13T21:00:59.982Z,21.40
2018-09-13T21:03:28.535Z,21.40
2018-09-13T21:06:01.308Z,21.30
2018-09-13T21:08:29.991Z,21.30
2018-09-13T21:10:58.562Z,21.30
2018-09-13T21:13:27.488Z,21.30
2018-09-13T21:15:56.159Z,21.30
2018-09-13T21:18:24.725Z,21.30
2018-09-13T21:20:54.066Z,21.20
2018-09-13T21:23:22.754Z,21.20
2018-09-13T21:25:51.312Z,21.10
2018-09-13T21:28:19.930Z,21.10
2018-09-13T21:30:48.468Z,21.10
2018-09-13T21:33:17.037Z,21.10
2018-09-13T21:35:45.516Z,21.00
2018-09-13T21:38:14.101Z,21.00
2018-09-13T21:40:42.693Z,21.00
2018-09-13T21:43:11.234Z,21.00
2018-09-13T21:45:40.742Z,21.00
2018-09-13T21:48:09.938Z,21.00
2018-09-13T21:50:39.287Z,21.00
2018-09-13T21:53:09.168Z,21.00
2018-09-13T22:01:23.676Z,20.90
2018-09-13T22:03:52.284Z,20.80
2018-09-13T22:06:20.858Z,20.80
2018-09-13T22:08:49.355Z,20.80
2018-09-13T22:11:17.979Z,20.70
2018-09-13T22:13:46.522Z,20.70
2018-09-13T22:16:15.039Z,20.70
2018-09-13T22:18:43.606Z,20.70
2018-09-13T22:21:12.073Z,20.70
2018-09-13T22:23:40.545Z,20.60
2018-09-13T22:26:09.127Z,20.60
2018-09-13T22:28:37.681Z,20.60
2018-09-13T22:31:06.203Z,20.60
2018-09-13T22:33:34.688Z,20.50
2018-09-13T22:36:03.221Z,20.50
2018-09-13T22:38:31.722Z,20.50
2018-09-13T22:41:00.235Z,20.40
2018-09-13T22:43:32.936Z,20.30
2018-09-13T22:46:01.522Z,20.30
2018-09-13T22:48:29.996Z,20.30
2018-09-13T22:50:58.476Z,20.30
2018-09-13T22:53:27.027Z,20.30
2018-09-13T22:55:57.024Z,20.40
2018-09-13T22:58:25.496Z,20.30
2018-09-13T23:00:57.312Z,20.30
2018-09-13T23:03:26.069Z,20.30
2018-09-13T23:05:54.623Z,20.30
2018-09-13T23:08:23.102Z,20.30
2018-09-13T23:10:51.621Z,20.30
2018-09-13T23:13:20.165Z,20.30
2018-09-13T23:15:48.860Z,20.20
2018-09-13T23:18:17.348Z,20.20
2018-09-13T23:20:45.800Z,20.10
2018-09-13T23:23:14.308Z,20.10
2018-09-13T23:25:42.834Z,20.10
2018-09-13T23:28:11.368Z,20.10
2018-09-13T23:30:39.942Z,20.20
2018-09-13T23:33:08.731Z,20.10
2018-09-13T23:35:37.354Z,20.10
2018-09-13T23:38:05.936Z,20.10
2018-09-13T23:40:34.572Z,20.10
2018-09-13T23:43:03.063Z,20.10
2018-09-13T23:45:31.652Z,19.90
2018-09-13T23:48:00.479Z,19.80
2018-09-13T23:50:29.395Z,19.80
2018-09-13T23:52:57.864Z,19.70
2018-09-13T23:55:26.388Z,19.70
2018-09-13T23:57:54.974Z,19.60
